sensor_id;sensor_type;location;lat;lon;timestamp;pressure;altitude;pressure_sealevel;temperature
72236;BMP280;60146;52.498;13.462;2022-08-03T00:00:59;101445.19;;;22.04
72236;BMP280;60146;52.498;13.462;2022-08-03T00:03:25;101437.78;;;22.12
72236;BMP280;60146;52.498;13.462;2022-08-03T00:05:50;101442.63;;;22.07
72236;BMP280;60146;52.498;13.462;2022-08-03T00:08:16;101438.28;;;22.03
72236;BMP280;60146;52.498;13.462;2022-08-03T00:10:41;101439.06;;;22.03
72236;BMP280;60146;52.498;13.462;2022-08-03T00:13:06;101447.31;;;21.98
72236;BMP280;60146;52.498;13.462;2022-08-03T00:15:32;101436.03;;;22.05
72236;BMP280;60146;52.498;13.462;2022-08-03T00:17:57;101442.06;;;22.02
72236;BMP280;60146;52.498;13.462;2022-08-03T00:20:23;101435.88;;;21.98
72236;BMP280;60146;52.498;13.462;2022-08-03T00:22:49;101437.72;;;21.82
72236;BMP280;60146;52.498;13.462;2022-08-03T00:25:15;101438.38;;;21.79
72236;BMP280;60146;52.498;13.462;2022-08-03T00:27:40;101431.50;;;21.78
72236;BMP280;60146;52.498;13.462;2022-08-03T00:30:06;101432.25;;;21.79
72236;BMP280;60146;52.498;13.462;2022-08-03T00:32:32;101428.75;;;21.90
72236;BMP280;60146;52.498;13.462;2022-08-03T00:34:57;101429.56;;;21.91
72236;BMP280;60146;52.498;13.462;2022-08-03T00:37:23;101419.03;;;21.82
72236;BMP280;60146;52.498;13.462;2022-08-03T00:39:48;101424.69;;;21.81
72236;BMP280;60146;52.498;13.462;2022-08-03T00:42:13;101414.09;;;21.84
72236;BMP280;60146;52.498;13.462;2022-08-03T00:44:40;101419.25;;;21.77
72236;BMP280;60146;52.498;13.462;2022-08-03T00:47:06;101414.84;;;21.70
72236;BMP280;60146;52.498;13.462;2022-08-03T00:49:32;101414.38;;;21.68
72236;BMP280;60146;52.498;13.462;2022-08-03T00:51:59;101417.53;;;21.70
72236;BMP280;60146;52.498;13.462;2022-08-03T00:54:24;101413.03;;;21.74
72236;BMP280;60146;52.498;13.462;2022-08-03T00:56:50;101414.59;;;21.74
72236;BMP280;60146;52.498;13.462;2022-08-03T00:59:17;101405.28;;;21.69
72236;BMP280;60146;52.498;13.462;2022-08-03T01:01:42;101410.19;;;21.67
72236;BMP280;60146;52.498;13.462;2022-08-03T01:04:08;101409.94;;;21.72
72236;BMP280;60146;52.498;13.462;2022-08-03T01:07:24;101414.84;;;21.70
72236;BMP280;60146;52.498;13.462;2022-08-03T01:09:52;101415.25;;;21.72
72236;BMP280;60146;52.498;13.462;2022-08-03T01:12:24;101414.16;;;21.73
72236;BMP280;60146;52.498;13.462;2022-08-03T01:15:02;101410.91;;;21.79
72236;BMP280;60146;52.498;13.462;2022-08-03T01:17:37;101405.56;;;21.79
72236;BMP280;60146;52.498;13.462;2022-08-03T01:20:10;101403.56;;;21.76
72236;BMP280;60146;52.498;13.462;2022-08-03T01:25:50;101401.97;;;21.87
72236;BMP280;60146;52.498;13.462;2022-08-03T01:31:06;101400.81;;;21.73
72236;BMP280;60146;52.498;13.462;2022-08-03T01:33:43;101396.25;;;21.73
72236;BMP280;60146;52.498;13.462;2022-08-03T01:36:12;101388.47;;;21.68
72236;BMP280;60146;52.498;13.462;2022-08-03T01:38:42;101397.59;;;21.67
72236;BMP280;60146;52.498;13.462;2022-08-03T01:41:11;101388.47;;;21.68
72236;BMP280;60146;52.498;13.462;2022-08-03T01:43:39;101391.47;;;21.78
72236;BMP280;60146;52.498;13.462;2022-08-03T01:46:06;101387.91;;;21.74
72236;BMP280;60146;52.498;13.462;2022-08-03T01:48:35;101386.13;;;21.78
72236;BMP280;60146;52.498;13.462;2022-08-03T01:51:01;101384.31;;;21.82
72236;BMP280;60146;52.498;13.462;2022-08-03T01:53:27;101390.50;;;21.86
72236;BMP280;60146;52.498;13.462;2022-08-03T01:55:54;101382.34;;;21.94
72236;BMP280;60146;52.498;13.462;2022-08-03T01:58:22;101381.16;;;21.92
72236;BMP280;60146;52.498;13.462;2022-08-03T02:00:50;101380.38;;;21.92
72236;BMP280;60146;52.498;13.462;2022-08-03T02:03:17;101379.50;;;21.88
72236;BMP280;60146;52.498;13.462;2022-08-03T02:05:44;101386.03;;;21.90
72236;BMP280;60146;52.498;13.462;2022-08-03T02:08:12;101373.13;;;21.92
72236;BMP280;60146;52.498;13.462;2022-08-03T02:10:40;101384.41;;;21.86
72236;BMP280;60146;52.498;13.462;2022-08-03T02:13:07;101385.84;;;21.83
72236;BMP280;60146;52.498;13.462;2022-08-03T02:15:34;101385.38;;;21.93
72236;BMP280;60146;52.498;13.462;2022-08-03T02:18:02;101383.38;;;21.90
72236;BMP280;60146;52.498;13.462;2022-08-03T02:20:29;101384.16;;;21.91
72236;BMP280;60146;52.498;13.462;2022-08-03T02:22:57;101384.94;;;21.91
72236;BMP280;60146;52.498;13.462;2022-08-03T02:25:23;101376.16;;;21.91
72236;BMP280;60146;52.498;13.462;2022-08-03T02:27:55;101373.38;;;21.87
72236;BMP280;60146;52.498;13.462;2022-08-03T02:30:21;101380.50;;;21.83
72236;BMP280;60146;52.498;13.462;2022-08-03T02:32:54;101384.84;;;21.88
72236;BMP280;60146;52.498;13.462;2022-08-03T02:35:21;101377.63;;;21.88
72236;BMP280;60146;52.498;13.462;2022-08-03T02:37:51;101383.47;;;21.93
72236;BMP280;60146;52.498;13.462;2022-08-03T02:40:18;101392.25;;;21.94
72236;BMP280;60146;52.498;13.462;2022-08-03T02:42:45;101378.47;;;21.92
72236;BMP280;60146;52.498;13.462;2022-08-03T02:45:11;101375.09;;;21.95
72236;BMP280;60146;52.498;13.462;2022-08-03T02:47:39;101370.81;;;21.91
72236;BMP280;60146;52.498;13.462;2022-08-03T02:50:08;101383.75;;;21.89
72236;BMP280;60146;52.498;13.462;2022-08-03T02:52:37;101384.69;;;21.96
72236;BMP280;60146;52.498;13.462;2022-08-03T02:55:03;101391.06;;;21.92
72236;BMP280;60146;52.498;13.462;2022-08-03T02:57:30;101382.47;;;21.86
72236;BMP280;60146;52.498;13.462;2022-08-03T02:59:58;101390.97;;;21.88
72236;BMP280;60146;52.498;13.462;2022-08-03T03:02:24;101388.31;;;21.88
72236;BMP280;60146;52.498;13.462;2022-08-03T03:04:51;101389.06;;;21.89
72236;BMP280;60146;52.498;13.462;2022-08-03T03:07:17;101390.50;;;21.86
72236;BMP280;60146;52.498;13.462;2022-08-03T03:09:43;101392.25;;;21.94
72236;BMP280;60146;52.498;13.462;2022-08-03T03:12:10;101386.81;;;21.91
72236;BMP280;60146;52.498;13.462;2022-08-03T03:14:37;101385.84;;;21.83
72236;BMP280;60146;52.498;13.462;2022-08-03T03:17:03;101382.97;;;21.76
72236;BMP280;60146;52.498;13.462;2022-08-03T03:19:31;101390.91;;;21.73
72236;BMP280;60146;52.498;13.462;2022-08-03T03:21:59;101387.91;;;21.74
72236;BMP280;60146;52.498;13.462;2022-08-03T03:24:26;101386.13;;;21.78
72236;BMP280;60146;52.498;13.462;2022-08-03T03:26:53;101389.44;;;21.75
72236;BMP280;60146;52.498;13.462;2022-08-03T03:29:18;101396.59;;;21.72
72236;BMP280;60146;52.498;13.462;2022-08-03T03:31:44;101391.50;;;21.67
72236;BMP280;60146;52.498;13.462;2022-08-03T03:34:10;101390.72;;;21.66
72236;BMP280;60146;52.498;13.462;2022-08-03T03:36:36;101393.38;;;21.66
72236;BMP280;60146;52.498;13.462;2022-08-03T03:39:01;101386.25;;;21.70
72236;BMP280;60146;52.498;13.462;2022-08-03T03:41:27;101390.72;;;21.66
72236;BMP280;60146;52.498;13.462;2022-08-03T03:43:52;101387.66;;;21.79
72236;BMP280;60146;52.498;13.462;2022-08-03T03:46:17;101384.31;;;21.82
72236;BMP280;60146;52.498;13.462;2022-08-03T03:48:43;101395.22;;;21.77
72236;BMP280;60146;52.498;13.462;2022-08-03T03:51:09;101391.00;;;21.76
72236;BMP280;60146;52.498;13.462;2022-08-03T03:53:34;101390.00;;;21.81
72236;BMP280;60146;52.498;13.462;2022-08-03T03:55:59;101378.53;;;21.80
72236;BMP280;60146;52.498;13.462;2022-08-03T03:58:25;101381.22;;;21.80
72236;BMP280;60146;52.498;13.462;2022-08-03T04:00:51;101377.66;;;21.76
72236;BMP280;60146;52.498;13.462;2022-08-03T04:03:18;101380.78;;;21.78
72236;BMP280;60146;52.498;13.462;2022-08-03T04:05:44;101385.66;;;21.76
72236;BMP280;60146;52.498;13.462;2022-08-03T04:08:28;101379.25;;;21.66
72236;BMP280;60146;52.498;13.462;2022-08-03T04:13:50;101389.78;;;21.74
72236;BMP280;60146;52.498;13.462;2022-08-03T04:16:18;101379.66;;;21.79
72236;BMP280;60146;52.498;13.462;2022-08-03T04:18:54;101391.25;;;21.72
72236;BMP280;60146;52.498;13.462;2022-08-03T04:21:21;101381.88;;;21.77
72236;BMP280;60146;52.498;13.462;2022-08-03T04:23:52;101391.19;;;21.83
72236;BMP280;60146;52.498;13.462;2022-08-03T04:26:20;101387.78;;;21.98
72236;BMP280;60146;52.498;13.462;2022-08-03T04:28:46;101393.91;;;21.98
72236;BMP280;60146;52.498;13.462;2022-08-03T04:31:16;101387.09;;;22.01
72236;BMP280;60146;52.498;13.462;2022-08-03T04:33:43;101402.09;;;22.05
72236;BMP280;60146;52.498;13.462;2022-08-03T04:36:15;101400.91;;;22.03
72236;BMP280;60146;52.498;13.462;2022-08-03T04:39:02;101400.19;;;22.06
72236;BMP280;60146;52.498;13.462;2022-08-03T04:41:29;101411.00;;;22.09
72236;BMP280;60146;52.498;13.462;2022-08-03T04:43:58;101406.25;;;22.03
72236;BMP280;60146;52.498;13.462;2022-08-03T04:46:31;101408.22;;;22.06
72236;BMP280;60146;52.498;13.462;2022-08-03T04:48:57;101409.50;;;22.11
72236;BMP280;60146;52.498;13.462;2022-08-03T04:51:23;101402.06;;;22.17
72236;BMP280;60146;52.498;13.462;2022-08-03T04:53:49;101409.38;;;22.20
72236;BMP280;60146;52.498;13.462;2022-08-03T04:56:14;101404.09;;;22.23
72236;BMP280;60146;52.498;13.462;2022-08-03T04:58:39;101404.66;;;22.29
72236;BMP280;60146;52.498;13.462;2022-08-03T05:01:05;101405.66;;;22.24
72236;BMP280;60146;52.498;13.462;2022-08-03T05:03:30;101403.34;;;22.38
72236;BMP280;60146;52.498;13.462;2022-08-03T05:05:56;101397.41;;;22.29
72236;BMP280;60146;52.498;13.462;2022-08-03T05:08:21;101405.44;;;22.29
72236;BMP280;60146;52.498;13.462;2022-08-03T05:10:47;101407.59;;;22.39
72236;BMP280;60146;52.498;13.462;2022-08-03T05:13:12;101399.28;;;22.44
72236;BMP280;60146;52.498;13.462;2022-08-03T05:15:38;101405.56;;;22.51
72236;BMP280;60146;52.498;13.462;2022-08-03T05:18:04;101409.41;;;22.50
72236;BMP280;60146;52.498;13.462;2022-08-03T05:20:30;101407.06;;;22.64
72236;BMP280;60146;52.498;13.462;2022-08-03T05:22:55;101404.50;;;23.01
72236;BMP280;60146;52.498;13.462;2022-08-03T05:25:21;101402.66;;;23.38
72236;BMP280;60146;52.498;13.462;2022-08-03T05:27:46;101413.91;;;23.65
72236;BMP280;60146;52.498;13.462;2022-08-03T05:30:12;101407.47;;;23.66
72236;BMP280;60146;52.498;13.462;2022-08-03T05:32:37;101407.72;;;23.61
72236;BMP280;60146;52.498;13.462;2022-08-03T05:35:02;101404.66;;;23.59
72236;BMP280;60146;52.498;13.462;2022-08-03T05:37:28;101414.38;;;23.49
72236;BMP280;60146;52.498;13.462;2022-08-03T05:39:53;101408.00;;;23.56
72236;BMP280;60146;52.498;13.462;2022-08-03T05:42:18;101415.25;;;23.56
72236;BMP280;60146;52.498;13.462;2022-08-03T05:44:44;101404.50;;;23.53
72236;BMP280;60146;52.498;13.462;2022-08-03T05:47:09;101415.19;;;23.53
72236;BMP280;60146;52.498;13.462;2022-08-03T05:49:37;101416.91;;;23.60
72236;BMP280;60146;52.498;13.462;2022-08-03T05:52:03;101409.03;;;23.67
72236;BMP280;60146;52.498;13.462;2022-08-03T05:54:28;101414.50;;;23.74
72236;BMP280;60146;52.498;13.462;2022-08-03T05:56:54;101412.34;;;23.83
72236;BMP280;60146;52.498;13.462;2022-08-03T05:59:19;101411.72;;;23.89
72236;BMP280;60146;52.498;13.462;2022-08-03T06:01:45;101415.97;;;23.90
72236;BMP280;60146;52.498;13.462;2022-08-03T06:04:11;101407.19;;;23.93
72236;BMP280;60146;52.498;13.462;2022-08-03T06:06:36;101416.34;;;24.10
72236;BMP280;60146;52.498;13.462;2022-08-03T06:09:01;101417.94;;;24.15
72236;BMP280;60146;52.498;13.462;2022-08-03T06:11:26;101412.69;;;24.22
72236;BMP280;60146;52.498;13.462;2022-08-03T06:13:52;101419.81;;;24.33
72236;BMP280;60146;52.498;13.462;2022-08-03T06:16:17;101416.44;;;24.39
72236;BMP280;60146;52.498;13.462;2022-08-03T06:18:42;101420.81;;;24.47
72236;BMP280;60146;52.498;13.462;2022-08-03T06:21:08;101416.75;;;24.56
72236;BMP280;60146;52.498;13.462;2022-08-03T06:23:34;101409.69;;;24.70
72236;BMP280;60146;52.498;13.462;2022-08-03T06:26:00;101412.84;;;24.76
72236;BMP280;60146;52.498;13.462;2022-08-03T06:28:25;101411.94;;;24.94
72236;BMP280;60146;52.498;13.462;2022-08-03T06:30:50;101409.25;;;24.94
72236;BMP280;60146;52.498;13.462;2022-08-03T06:33:16;101405.19;;;25.06
72236;BMP280;60146;52.498;13.462;2022-08-03T06:35:41;101407.59;;;25.11
72236;BMP280;60146;52.498;13.462;2022-08-03T06:38:07;101405.81;;;25.22
72236;BMP280;60146;52.498;13.462;2022-08-03T06:40:35;101408.97;;;25.31
72236;BMP280;60146;52.498;13.462;2022-08-03T06:43:05;101406.81;;;25.39
72236;BMP280;60146;52.498;13.462;2022-08-03T06:45:31;101418.03;;;25.48
72236;BMP280;60146;52.498;13.462;2022-08-03T06:48:07;101405.84;;;25.54
72236;BMP280;60146;52.498;13.462;2022-08-03T06:50:38;101402.88;;;25.66
72236;BMP280;60146;52.498;13.462;2022-08-03T06:53:04;101414.81;;;25.71
72236;BMP280;60146;52.498;13.462;2022-08-03T06:55:30;101398.09;;;25.85
72236;BMP280;60146;52.498;13.462;2022-08-03T06:57:55;101405.03;;;25.89
72236;BMP280;60146;52.498;13.462;2022-08-03T07:00:21;101407.84;;;26.03
72236;BMP280;60146;52.498;13.462;2022-08-03T07:02:46;101409.78;;;26.05
72236;BMP280;60146;52.498;13.462;2022-08-03T07:05:12;101401.03;;;26.12
72236;BMP280;60146;52.498;13.462;2022-08-03T07:07:38;101406.06;;;26.17
72236;BMP280;60146;52.498;13.462;2022-08-03T07:10:04;101406.56;;;26.32
72236;BMP280;60146;52.498;13.462;2022-08-03T07:12:31;101398.59;;;26.42
72236;BMP280;60146;52.498;13.462;2022-08-03T07:14:57;101397.47;;;26.50
72236;BMP280;60146;52.498;13.462;2022-08-03T07:17:23;101401.03;;;26.64
72236;BMP280;60146;52.498;13.462;2022-08-03T07:19:48;101399.59;;;26.80
72236;BMP280;60146;52.498;13.462;2022-08-03T07:22:13;101400.41;;;26.88
72236;BMP280;60146;52.498;13.462;2022-08-03T07:24:39;101402.78;;;26.99
72236;BMP280;60146;52.498;13.462;2022-08-03T07:27:06;101403.56;;;27.13
72236;BMP280;60146;52.498;13.462;2022-08-03T07:29:31;101403.19;;;27.11
72236;BMP280;60146;52.498;13.462;2022-08-03T07:31:56;101397.47;;;27.16
72236;BMP280;60146;52.498;13.462;2022-08-03T07:34:22;101401.75;;;27.34
72236;BMP280;60146;52.498;13.462;2022-08-03T07:36:47;101409.06;;;27.41
72236;BMP280;60146;52.498;13.462;2022-08-03T07:39:12;101399.47;;;27.50
72236;BMP280;60146;52.498;13.462;2022-08-03T07:41:37;101397.94;;;27.49
72236;BMP280;60146;52.498;13.462;2022-08-03T07:44:03;101403.00;;;27.64
72236;BMP280;60146;52.498;13.462;2022-08-03T07:46:28;101403.75;;;27.78
72236;BMP280;60146;52.498;13.462;2022-08-03T07:48:53;101397.63;;;27.91
72236;BMP280;60146;52.498;13.462;2022-08-03T07:51:19;101406.88;;;27.90
72236;BMP280;60146;52.498;13.462;2022-08-03T07:53:44;101402.25;;;28.08
72236;BMP280;60146;52.498;13.462;2022-08-03T07:56:09;101400.31;;;28.12
72236;BMP280;60146;52.498;13.462;2022-08-03T07:58:37;101398.38;;;28.12
72236;BMP280;60146;52.498;13.462;2022-08-03T08:01:03;101402.63;;;28.23
72236;BMP280;60146;52.498;13.462;2022-08-03T08:03:28;101393.75;;;28.30
72236;BMP280;60146;52.498;13.462;2022-08-03T08:05:54;101400.66;;;28.41
72236;BMP280;60146;52.498;13.462;2022-08-03T08:08:19;101396.78;;;28.52
72236;BMP280;60146;52.498;13.462;2022-08-03T08:10:46;101391.75;;;28.61
72236;BMP280;60146;52.498;13.462;2022-08-03T08:13:11;101400.59;;;28.71
72236;BMP280;60146;52.498;13.462;2022-08-03T08:15:37;101395.16;;;28.75
72236;BMP280;60146;52.498;13.462;2022-08-03T08:18:02;101399.78;;;28.78
72236;BMP280;60146;52.498;13.462;2022-08-03T08:20:32;101398.94;;;28.94
72236;BMP280;60146;52.498;13.462;2022-08-03T08:22:59;101394.66;;;29.00
72236;BMP280;60146;52.498;13.462;2022-08-03T08:25:25;101401.97;;;29.10
72236;BMP280;60146;52.498;13.462;2022-08-03T08:27:51;101394.25;;;29.12
72236;BMP280;60146;52.498;13.462;2022-08-03T08:30:19;101401.91;;;29.23
72236;BMP280;60146;52.498;13.462;2022-08-03T08:32:45;101408.25;;;29.56
72236;BMP280;60146;52.498;13.462;2022-08-03T08:35:11;101402.06;;;29.59
72236;BMP280;60146;52.498;13.462;2022-08-03T08:37:37;101403.84;;;29.79
72236;BMP280;60146;52.498;13.462;2022-08-03T08:40:04;101397.09;;;29.97
72236;BMP280;60146;52.498;13.462;2022-08-03T08:42:30;101407.28;;;30.22
72236;BMP280;60146;52.498;13.462;2022-08-03T08:44:56;101398.00;;;30.88
72236;BMP280;60146;52.498;13.462;2022-08-03T08:47:29;101391.59;;;31.56
72236;BMP280;60146;52.498;13.462;2022-08-03T08:49:56;101401.78;;;31.94
72236;BMP280;60146;52.498;13.462;2022-08-03T08:52:24;101387.97;;;32.45
72236;BMP280;60146;52.498;13.462;2022-08-03T08:54:51;101395.19;;;32.71
72236;BMP280;60146;52.498;13.462;2022-08-03T08:57:19;101387.63;;;33.43
72236;BMP280;60146;52.498;13.462;2022-08-03T08:59:44;101393.81;;;34.03
72236;BMP280;60146;52.498;13.462;2022-08-03T09:02:10;101395.16;;;34.62
72236;BMP280;60146;52.498;13.462;2022-08-03T09:04:37;101391.94;;;35.36
72236;BMP280;60146;52.498;13.462;2022-08-03T09:07:03;101387.97;;;35.83
72236;BMP280;60146;52.498;13.462;2022-08-03T09:09:30;101396.34;;;36.59
72236;BMP280;60146;52.498;13.462;2022-08-03T09:11:55;101385.84;;;37.13
72236;BMP280;60146;52.498;13.462;2022-08-03T09:14:21;101384.06;;;37.72
72236;BMP280;60146;52.498;13.462;2022-08-03T09:16:58;101384.28;;;38.17
72236;BMP280;60146;52.498;13.462;2022-08-03T09:19:24;101375.22;;;38.88
72236;BMP280;60146;52.498;13.462;2022-08-03T09:24:32;101380.69;;;39.34
72236;BMP280;60146;52.498;13.462;2022-08-03T09:26:57;101370.78;;;39.65
72236;BMP280;60146;52.498;13.462;2022-08-03T09:29:23;101372.66;;;39.87
72236;BMP280;60146;52.498;13.462;2022-08-03T09:31:59;101369.19;;;39.72
72236;BMP280;60146;52.498;13.462;2022-08-03T09:34:25;101361.97;;;39.61
72236;BMP280;60146;52.498;13.462;2022-08-03T09:36:52;101366.16;;;39.70
72236;BMP280;60146;52.498;13.462;2022-08-03T09:39:20;101366.84;;;40.27
72236;BMP280;60146;52.498;13.462;2022-08-03T09:41:48;101368.16;;;40.84
72236;BMP280;60146;52.498;13.462;2022-08-03T09:44:35;101363.22;;;41.62
72236;BMP280;60146;52.498;13.462;2022-08-03T09:47:01;101362.88;;;41.50
72236;BMP280;60146;52.498;13.462;2022-08-03T09:49:26;101369.00;;;39.90
72236;BMP280;60146;52.498;13.462;2022-08-03T09:51:52;101375.66;;;40.64
72236;BMP280;60146;52.498;13.462;2022-08-03T09:54:29;101362.28;;;41.40
72236;BMP280;60146;52.498;13.462;2022-08-03T09:56:55;101363.66;;;42.15
72236;BMP280;60146;52.498;13.462;2022-08-03T09:59:27;101366.00;;;42.95
72236;BMP280;60146;52.498;13.462;2022-08-03T10:01:54;101365.06;;;43.40
72236;BMP280;60146;52.498;13.462;2022-08-03T10:04:20;101366.88;;;43.54
72236;BMP280;60146;52.498;13.462;2022-08-03T10:07:04;101358.50;;;43.01
72236;BMP280;60146;52.498;13.462;2022-08-03T10:09:30;101358.91;;;42.73
72236;BMP280;60146;52.498;13.462;2022-08-03T10:11:56;101349.59;;;42.65
72236;BMP280;60146;52.498;13.462;2022-08-03T10:14:21;101349.78;;;42.05
72236;BMP280;60146;52.498;13.462;2022-08-03T10:16:48;101349.00;;;42.45
72236;BMP280;60146;52.498;13.462;2022-08-03T10:19:14;101345.47;;;42.44
72236;BMP280;60146;52.498;13.462;2022-08-03T10:21:54;101352.41;;;42.86
72236;BMP280;60146;52.498;13.462;2022-08-03T10:24:24;101346.97;;;43.50
72236;BMP280;60146;52.498;13.462;2022-08-03T10:26:52;101338.81;;;45.39
72236;BMP280;60146;52.498;13.462;2022-08-03T10:29:21;101338.53;;;45.42
72236;BMP280;60146;52.498;13.462;2022-08-03T10:31:53;101344.97;;;46.02
72236;BMP280;60146;52.498;13.462;2022-08-03T10:34:25;101335.94;;;45.49
72236;BMP280;60146;52.498;13.462;2022-08-03T10:36:54;101330.19;;;46.96
72236;BMP280;60146;52.498;13.462;2022-08-03T10:39:22;101333.47;;;46.10
72236;BMP280;60146;52.498;13.462;2022-08-03T10:41:49;101341.28;;;45.14
72236;BMP280;60146;52.498;13.462;2022-08-03T10:44:19;101328.03;;;46.41
72236;BMP280;60146;52.498;13.462;2022-08-03T10:46:46;101328.38;;;46.14
72236;BMP280;60146;52.498;13.462;2022-08-03T10:49:16;101329.59;;;47.03
72236;BMP280;60146;52.498;13.462;2022-08-03T10:51:43;101328.09;;;47.02
72236;BMP280;60146;52.498;13.462;2022-08-03T10:57:46;101333.50;;;46.95
72236;BMP280;60146;52.498;13.462;2022-08-03T11:00:14;101322.13;;;47.99
72236;BMP280;60146;52.498;13.462;2022-08-03T11:03:05;101319.28;;;48.76
72236;BMP280;60146;52.498;13.462;2022-08-03T11:05:35;101312.75;;;48.73
72236;BMP280;60146;52.498;13.462;2022-08-03T11:08:33;101311.84;;;49.18
72236;BMP280;60146;52.498;13.462;2022-08-03T11:16:25;101312.84;;;48.61
72236;BMP280;60146;52.498;13.462;2022-08-03T11:18:58;101305.03;;;47.95
72236;BMP280;60146;52.498;13.462;2022-08-03T11:21:54;101320.28;;;48.14
72236;BMP280;60146;52.498;13.462;2022-08-03T11:35:14;101301.84;;;46.67
72236;BMP280;60146;52.498;13.462;2022-08-03T11:38:05;101294.97;;;47.79
72236;BMP280;60146;52.498;13.462;2022-08-03T11:43:04;101302.34;;;48.94
72236;BMP280;60146;52.498;13.462;2022-08-03T11:45:30;101301.50;;;49.33
72236;BMP280;60146;52.498;13.462;2022-08-03T11:47:56;101297.72;;;48.96
72236;BMP280;60146;52.498;13.462;2022-08-03T11:50:23;101309.31;;;48.28
72236;BMP280;60146;52.498;13.462;2022-08-03T11:52:48;101304.53;;;47.58
72236;BMP280;60146;52.498;13.462;2022-08-03T11:55:17;101300.78;;;48.66
72236;BMP280;60146;52.498;13.462;2022-08-03T11:57:44;101304.06;;;48.97
72236;BMP280;60146;52.498;13.462;2022-08-03T12:00:24;101285.16;;;48.63
72236;BMP280;60146;52.498;13.462;2022-08-03T12:02:57;101292.66;;;49.49
72236;BMP280;60146;52.498;13.462;2022-08-03T12:05:49;101287.91;;;49.64
72236;BMP280;60146;52.498;13.462;2022-08-03T12:10:52;101285.56;;;47.32
72236;BMP280;60146;52.498;13.462;2022-08-03T12:13:19;101290.72;;;46.85
72236;BMP280;60146;52.498;13.462;2022-08-03T12:15:53;101289.19;;;47.65
72236;BMP280;60146;52.498;13.462;2022-08-03T12:18:19;101286.03;;;48.06
72236;BMP280;60146;52.498;13.462;2022-08-03T12:20:46;101285.34;;;48.85
72236;BMP280;60146;52.498;13.462;2022-08-03T12:23:12;101285.25;;;48.38
72236;BMP280;60146;52.498;13.462;2022-08-03T12:25:39;101278.91;;;48.50
72236;BMP280;60146;52.498;13.462;2022-08-03T12:28:08;101278.63;;;47.38
72236;BMP280;60146;52.498;13.462;2022-08-03T12:30:34;101271.13;;;46.11
72236;BMP280;60146;52.498;13.462;2022-08-03T12:35:42;101273.94;;;46.60
72236;BMP280;60146;52.498;13.462;2022-08-03T12:38:07;101266.44;;;46.55
72236;BMP280;60146;52.498;13.462;2022-08-03T12:40:34;101259.06;;;46.88
72236;BMP280;60146;52.498;13.462;2022-08-03T12:42:59;101264.06;;;45.92
72236;BMP280;60146;52.498;13.462;2022-08-03T12:45:26;101266.00;;;45.56
72236;BMP280;60146;52.498;13.462;2022-08-03T12:47:59;101258.91;;;46.02
72236;BMP280;60146;52.498;13.462;2022-08-03T12:50:33;101255.50;;;45.91
72236;BMP280;60146;52.498;13.462;2022-08-03T12:53:00;101254.47;;;46.11
72236;BMP280;60146;52.498;13.462;2022-08-03T12:55:26;101250.34;;;47.09
72236;BMP280;60146;52.498;13.462;2022-08-03T12:58:00;101253.56;;;47.13
72236;BMP280;60146;52.498;13.462;2022-08-03T13:00:26;101245.81;;;47.82
72236;BMP280;60146;52.498;13.462;2022-08-03T13:03:03;101241.25;;;48.04
72236;BMP280;60146;52.498;13.462;2022-08-03T13:05:29;101251.22;;;46.74
72236;BMP280;60146;52.498;13.462;2022-08-03T13:07:55;101245.75;;;47.24
72236;BMP280;60146;52.498;13.462;2022-08-03T13:10:34;101238.72;;;46.80
72236;BMP280;60146;52.498;13.462;2022-08-03T13:12:59;101237.56;;;48.41
72236;BMP280;60146;52.498;13.462;2022-08-03T13:15:28;101230.06;;;47.97
72236;BMP280;60146;52.498;13.462;2022-08-03T13:17:55;101236.63;;;48.58
72236;BMP280;60146;52.498;13.462;2022-08-03T13:20:21;101234.41;;;47.92
72236;BMP280;60146;52.498;13.462;2022-08-03T13:22:47;101240.88;;;48.40
72236;BMP280;60146;52.498;13.462;2022-08-03T13:25:13;101239.34;;;47.99
72236;BMP280;60146;52.498;13.462;2022-08-03T13:27:39;101240.63;;;47.28
72236;BMP280;60146;52.498;13.462;2022-08-03T13:30:07;101243.88;;;46.58
72236;BMP280;60146;52.498;13.462;2022-08-03T13:32:33;101239.69;;;46.52
72236;BMP280;60146;52.498;13.462;2022-08-03T13:34:58;101235.56;;;45.51
72236;BMP280;60146;52.498;13.462;2022-08-03T13:37:25;101229.75;;;45.72
72236;BMP280;60146;52.498;13.462;2022-08-03T13:39:50;101241.16;;;46.71
72236;BMP280;60146;52.498;13.462;2022-08-03T13:42:16;101228.09;;;47.34
72236;BMP280;60146;52.498;13.462;2022-08-03T13:44:41;101233.75;;;47.67
72236;BMP280;60146;52.498;13.462;2022-08-03T13:47:06;101231.28;;;48.28
72236;BMP280;60146;52.498;13.462;2022-08-03T13:49:33;101223.72;;;47.84
72236;BMP280;60146;52.498;13.462;2022-08-03T13:51:59;101229.81;;;47.50
72236;BMP280;60146;52.498;13.462;2022-08-03T13:54:25;101224.59;;;47.79
72236;BMP280;60146;52.498;13.462;2022-08-03T13:56:50;101218.63;;;48.07
72236;BMP280;60146;52.498;13.462;2022-08-03T13:59:19;101214.78;;;48.30
72236;BMP280;60146;52.498;13.462;2022-08-03T14:01:46;101225.22;;;46.71
72236;BMP280;60146;52.498;13.462;2022-08-03T14:04:11;101210.75;;;46.91
72236;BMP280;60146;52.498;13.462;2022-08-03T14:06:37;101217.44;;;46.70
72236;BMP280;60146;52.498;13.462;2022-08-03T14:12:14;101209.94;;;46.65
72236;BMP280;60146;52.498;13.462;2022-08-03T14:14:40;101199.72;;;46.24
72236;BMP280;60146;52.498;13.462;2022-08-03T14:17:05;101197.41;;;45.75
72236;BMP280;60146;52.498;13.462;2022-08-03T14:19:31;101193.19;;;45.50
72236;BMP280;60146;52.498;13.462;2022-08-03T14:21:56;101196.75;;;44.76
72236;BMP280;60146;52.498;13.462;2022-08-03T14:24:22;101190.38;;;44.81
72236;BMP280;60146;52.498;13.462;2022-08-03T14:26:48;101191.56;;;44.62
72236;BMP280;60146;52.498;13.462;2022-08-03T14:29:16;101194.50;;;43.91